Time;durP1;ratioP1;P1;durP2;ratioP2;P2;SDS_P1;SDS_P2;PMS_P1;PMS_P2;Temp;Humidity;BMP_temperature;BMP_pressure;BME280_temperature;BME280_humidity;BME280_pressure;Samples;Min_cycle;Max_cycle;Signal;HPM_P1;HPM_P2
2024/04/18 00:02:08;;;;;;;1.90;1.30;;;;;;;2.85;100.00;96150.69;5344820;26;20001;-69
2024/04/18 00:04:33;;;;;;;10.35;1.60;;;;;;;2.91;100.00;96145.06;5331054;26;20754;-69
2024/04/18 00:07:01;;;;;;;2.55;1.40;;;;;;;2.93;100.00;96151.72;5379585;26;20010;-69
2024/04/18 00:09:26;;;;;;;5.05;1.30;;;;;;;3.01;100.00;96150.88;5356445;26;20001;-70
2024/04/18 00:11:52;;;;;;;6.95;2.17;;;;;;;2.99;100.00;96147.72;5375937;26;20018;-68
2024/04/18 00:14:17;;;;;;;2.80;1.40;;;;;;;2.97;100.00;96149.16;5352633;26;20014;-69
2024/04/18 00:16:42;;;;;;;2.08;1.50;;;;;;;3.13;100.00;96150.13;5360966;26;19996;-69
2024/04/18 00:19:08;;;;;;;1.55;1.33;;;;;;;3.28;100.00;96146.03;5355116;26;20837;-69
2024/04/18 00:21:34;;;;;;;3.20;1.55;;;;;;;3.24;100.00;96142.41;5360246;26;20048;-69
2024/04/18 00:23:59;;;;;;;2.60;1.52;;;;;;;3.17;100.00;96140.25;5360237;26;20000;-69
2024/04/18 00:26:25;;;;;;;2.22;1.40;;;;;;;3.17;100.00;96137.53;5352505;26;20335;-67
2024/04/18 00:28:50;;;;;;;2.70;1.75;;;;;;;3.14;100.00;96140.91;5361182;26;20000;-69
2024/04/18 00:31:15;;;;;;;2.08;1.63;;;;;;;2.93;100.00;96135.50;5352839;26;20007;-66
2024/04/18 00:33:41;;;;;;;3.08;1.90;;;;;;;2.93;100.00;96135.50;5359555;26;20025;-67
2024/04/18 00:36:07;;;;;;;2.88;2.03;;;;;;;2.82;100.00;96128.91;5353881;26;20012;-68
2024/04/18 00:38:33;;;;;;;2.75;2.00;;;;;;;2.80;100.00;96129.25;5360112;26;20355;-68
2024/04/18 00:40:58;;;;;;;2.97;1.90;;;;;;;2.83;100.00;96134.00;5327079;26;19997;-68
2024/04/18 00:43:24;;;;;;;3.97;2.30;;;;;;;2.75;100.00;96131.34;5354273;26;20018;-68
2024/04/18 00:45:50;;;;;;;3.72;2.25;;;;;;;2.53;100.00;96129.75;5329857;26;20035;-69
2024/04/18 00:48:16;;;;;;;3.50;2.10;;;;;;;2.71;100.00;96125.81;5354424;26;20409;-68
2024/04/18 00:50:41;;;;;;;4.68;2.13;;;;;;;2.81;100.00;96130.03;5359296;26;20077;-69
2024/04/18 00:53:07;;;;;;;3.65;2.10;;;;;;;2.92;100.00;96120.41;5359481;26;20000;-67
2024/04/18 00:55:35;;;;;;;3.00;1.85;;;;;;;2.97;100.00;96120.22;5368500;26;20001;-67
2024/04/18 00:58:01;;;;;;;3.88;2.22;;;;;;;2.89;100.00;96126.47;5360736;26;20079;-67
2024/04/18 01:00:27;;;;;;;3.08;1.95;;;;;;;2.84;100.00;96123.97;5359908;26;20034;-69
2024/04/18 01:02:52;;;;;;;2.55;2.00;;;;;;;2.80;100.00;96123.03;5349380;26;20001;-69
2024/04/18 01:05:18;;;;;;;4.10;2.55;;;;;;;2.83;100.00;96134.00;5359951;26;20468;-68
2024/04/18 01:07:43;;;;;;;3.17;2.42;;;;;;;2.73;100.00;96123.56;5334476;26;20004;-68
2024/04/18 01:10:08;;;;;;;4.03;2.65;;;;;;;2.70;100.00;96129.63;5322345;26;20000;-69
2024/04/18 01:12:34;;;;;;;5.35;3.00;;;;;;;2.72;100.00;96119.28;5373523;26;20019;-69
2024/04/18 01:14:59;;;;;;;4.32;3.03;;;;;;;2.85;100.00;96128.25;5331873;26;20439;-69
2024/04/18 01:17:25;;;;;;;5.40;3.00;;;;;;;3.09;100.00;96124.88;5352800;26;20012;-68
2024/04/18 01:19:50;;;;;;;3.65;2.90;;;;;;;3.10;100.00;96125.66;5359699;26;19996;-68
2024/04/18 01:22:16;;;;;;;4.65;2.88;;;;;;;3.05;100.00;96127.44;5321539;26;20004;-69
2024/04/18 01:24:42;;;;;;;4.15;2.83;;;;;;;3.00;100.00;96132.28;5361598;26;20016;-68
2024/04/18 01:27:07;;;;;;;4.18;2.53;;;;;;;3.05;100.00;96135.56;5322131;26;20000;-70
2024/04/18 01:29:33;;;;;;;3.22;2.65;;;;;;;3.03;100.00;96134.31;5358996;26;20352;-69
2024/04/18 01:31:58;;;;;;;5.85;2.50;;;;;;;2.98;100.00;96138.00;5358594;26;19997;-68
2024/04/18 01:34:24;;;;;;;3.65;2.42;;;;;;;2.93;100.00;96129.31;5351627;26;20008;-68
2024/04/18 01:36:51;;;;;;;4.68;2.90;;;;;;;3.02;100.00;96138.13;5326774;26;20000;-68
2024/04/18 01:39:16;;;;;;;3.30;2.35;;;;;;;2.99;100.00;96136.09;5343313;26;20000;-68
2024/04/18 01:41:42;;;;;;;3.30;2.50;;;;;;;3.00;100.00;96133.06;5357912;26;20457;-68
2024/04/18 01:44:07;;;;;;;6.93;2.40;;;;;;;2.99;100.00;96131.50;5352347;26;20001;-68
2024/04/18 01:46:33;;;;;;;4.60;2.63;;;;;;;3.00;100.00;96141.16;5359400;26;20178;-69
2024/04/18 01:48:58;;;;;;;3.55;2.30;;;;;;;3.08;100.00;96136.00;5360068;26;20000;-68
2024/04/18 01:51:24;;;;;;;4.28;2.50;;;;;;;3.15;100.00;96133.56;5353949;26;20407;-69
2024/04/18 01:53:49;;;;;;;3.58;2.55;;;;;;;3.02;100.00;96133.50;5359732;26;20510;-68
2024/04/18 01:56:14;;;;;;;4.28;2.90;;;;;;;3.17;100.00;96134.84;5316057;26;20000;-69
2024/04/18 01:58:40;;;;;;;5.28;2.90;;;;;;;3.24;100.00;96126.16;5366726;26;20024;-68
2024/04/18 02:01:05;;;;;;;5.20;2.88;;;;;;;3.28;100.00;96127.09;5311339;26;19997;-67
2024/04/18 02:03:31;;;;;;;4.40;2.95;;;;;;;3.27;100.00;96114.66;5359738;26;20452;-67
2024/04/18 02:05:56;;;;;;;3.78;2.88;;;;;;;3.27;100.00;96122.78;5359864;26;20012;-67
2024/04/18 02:08:21;;;;;;;4.32;3.05;;;;;;;3.15;100.00;96120.84;5356935;26;19997;-68
2024/04/18 02:10:49;;;;;;;5.38;3.03;;;;;;;3.02;100.00;96119.97;5330450;26;20081;-68
2024/04/18 02:13:15;;;;;;;3.72;2.95;;;;;;;3.02;100.00;96130.03;5351290;26;20000;-68
2024/04/18 02:15:40;;;;;;;4.35;2.80;;;;;;;2.97;100.00;96122.09;5359712;26;20772;-68
2024/04/18 02:18:06;;;;;;;4.70;2.97;;;;;;;2.96;100.00;96129.44;5350786;26;20659;-67
2024/04/18 02:20:31;;;;;;;5.18;3.22;;;;;;;2.89;100.00;96126.47;5358507;26;20330;-68
2024/04/18 02:22:57;;;;;;;11.63;4.20;;;;;;;2.79;100.00;96122.25;5358594;26;20000;-68
2024/04/18 02:25:22;;;;;;;9.68;4.25;;;;;;;2.80;100.00;96117.63;5351691;26;19997;-68
2024/04/18 02:27:47;;;;;;;5.97;3.55;;;;;;;2.59;100.00;96123.03;5323190;26;19997;-69
2024/04/18 02:30:13;;;;;;;4.25;3.35;;;;;;;2.58;100.00;96137.69;5352431;26;20043;-66
2024/04/18 02:32:39;;;;;;;8.07;3.50;;;;;;;2.66;100.00;96132.19;5358621;26;20011;-70
2024/04/18 02:35:05;;;;;;;7.30;4.10;;;;;;;2.72;100.00;96126.59;5321292;26;20019;-67
2024/04/18 02:37:30;;;;;;;16.98;5.35;;;;;;;2.72;100.00;96132.00;5391405;26;20000;-67
2024/04/18 02:39:56;;;;;;;9.60;4.97;;;;;;;2.70;100.00;96126.13;5358802;26;20000;-68
2024/04/18 02:42:21;;;;;;;4.35;3.38;;;;;;;2.77;100.00;96129.09;5332304;26;21052;-68
2024/04/18 02:44:47;;;;;;;4.40;3.30;;;;;;;2.69;100.00;96125.34;5359555;26;20458;-67
2024/04/18 02:47:13;;;;;;;5.10;3.10;;;;;;;2.53;100.00;96121.66;5349783;26;19996;-68
2024/04/18 02:49:39;;;;;;;4.07;3.20;;;;;;;2.39;100.00;96130.78;5362365;26;20036;-69
2024/04/18 02:52:04;;;;;;;4.90;3.28;;;;;;;2.35;100.00;96129.06;5354773;26;20080;-69
2024/04/18 02:54:30;;;;;;;5.18;3.47;;;;;;;2.24;100.00;96128.66;5363900;26;20439;-69
2024/04/18 02:56:56;;;;;;;8.40;3.67;;;;;;;2.20;100.00;96125.03;5362169;26;20008;-68
2024/04/18 02:59:21;;;;;;;5.63;3.72;;;;;;;2.07;100.00;96127.63;5355071;26;20227;-67
2024/04/18 03:01:47;;;;;;;4.97;3.75;;;;;;;2.07;100.00;96129.53;5352334;26;20447;-68
2024/04/18 03:04:13;;;;;;;7.35;3.72;;;;;;;2.09;100.00;96132.72;5361514;26;19996;-68
2024/04/18 03:06:38;;;;;;;5.13;3.85;;;;;;;2.11;100.00;96135.88;5372186;26;20627;-67
2024/04/18 03:09:03;;;;;;;6.35;4.20;;;;;;;2.04;100.00;96125.56;5355277;26;20147;-67
2024/04/18 03:11:29;;;;;;;5.80;4.30;;;;;;;1.98;100.00;96134.19;5375999;26;19999;-68
2024/04/18 03:13:54;;;;;;;5.45;4.45;;;;;;;1.94;100.00;96128.63;5368494;26;20015;-68
2024/04/18 03:16:20;;;;;;;7.32;4.43;;;;;;;1.99;100.00;96133.84;5351719;26;22012;-66
2024/04/18 03:18:45;;;;;;;6.10;4.55;;;;;;;1.97;100.00;96138.78;5361116;26;20015;-68
2024/04/18 03:21:11;;;;;;;6.97;4.93;;;;;;;1.98;100.00;96134.19;5320782;26;20389;-67
2024/04/18 03:23:37;;;;;;;8.65;4.95;;;;;;;2.07;100.00;96124.13;5361502;26;20028;-67
2024/04/18 03:26:03;;;;;;;6.72;4.43;;;;;;;2.31;100.00;96131.63;5357953;26;20107;-67
2024/04/18 03:28:28;;;;;;;6.63;4.78;;;;;;;2.42;100.00;96134.75;5361275;26;20016;-68
2024/04/18 03:30:54;;;;;;;6.82;4.70;;;;;;;2.54;100.00;96132.13;5361360;26;20019;-67
2024/04/18 03:33:19;;;;;;;10.32;4.90;;;;;;;2.77;100.00;96131.81;5360950;26;20003;-68
2024/04/18 03:35:45;;;;;;;7.15;4.38;;;;;;;2.84;100.00;96129.38;5367663;26;20032;-67
2024/04/18 03:38:10;;;;;;;6.63;4.45;;;;;;;2.87;100.00;96136.81;5351864;26;20475;-67
2024/04/18 03:40:38;;;;;;;8.32;3.92;;;;;;;2.96;100.00;96134.84;5332321;26;20125;-66
2024/04/18 03:43:04;;;;;;;8.32;4.63;;;;;;;3.03;100.00;96140.50;5330682;26;20083;-65
2024/04/18 03:45:30;;;;;;;7.97;4.32;;;;;;;3.09;100.00;96140.31;5362657;26;20442;-68
2024/04/18 03:47:55;;;;;;;6.38;4.10;;;;;;;3.10;100.00;96145.41;5328843;26;20078;-67
2024/04/18 03:50:20;;;;;;;6.60;3.72;;;;;;;3.14;100.00;96143.59;5352812;26;20320;-67
2024/04/18 03:52:49;;;;;;;5.80;3.95;;;;;;;3.19;100.00;96148.81;5300614;26;20048;-68
2024/04/18 03:55:14;;;;;;;4.57;3.42;;;;;;;3.22;100.00;96148.16;5352185;26;20015;-67
2024/04/18 03:57:40;;;;;;;5.43;4.10;;;;;;;3.16;100.00;96141.34;5360663;26;20004;-69
2024/04/18 04:00:06;;;;;;;7.53;3.65;;;;;;;3.06;100.00;96142.56;5352224;26;20000;-67
2024/04/18 04:02:35;;;;;;;5.72;3.85;;;;;;;2.67;100.00;96151.94;5344110;26;19995;-67
2024/04/18 04:05:00;;;;;;;6.72;4.07;;;;;;;2.63;100.00;96153.72;5368493;26;20000;-67
2024/04/18 04:07:25;;;;;;;5.63;3.55;;;;;;;2.59;100.00;96161.69;5352335;26;20011;-68
2024/04/18 04:09:51;;;;;;;6.20;4.35;;;;;;;2.61;100.00;96151.34;5361111;26;20015;-67
2024/04/18 04:12:16;;;;;;;5.32;4.55;;;;;;;2.66;100.00;96150.34;5355315;26;20000;-67
2024/04/18 04:14:42;;;;;;;7.60;5.65;;;;;;;2.66;100.00;96156.53;5335972;26;20016;-67
2024/04/18 04:17:10;;;;;;;27.50;13.70;;;;;;;2.73;100.00;96160.63;5353281;26;20004;-67
2024/04/18 04:19:35;;;;;;;39.90;18.75;;;;;;;2.77;100.00;96158.84;5361266;26;20059;-68
2024/04/18 04:22:01;;;;;;;9.35;6.35;;;;;;;2.61;100.00;96159.44;5357143;26;20011;-69
2024/04/18 04:24:27;;;;;;;8.80;5.82;;;;;;;2.41;100.00;96161.00;5311657;26;20009;-68
2024/04/18 04:26:53;;;;;;;10.15;5.75;;;;;;;2.28;100.00;96160.09;5323062;26;20019;-70
2024/04/18 04:29:19;;;;;;;7.25;5.40;;;;;;;2.55;100.00;96158.03;5354333;26;20435;-68
2024/04/18 04:31:45;;;;;;;7.38;4.63;;;;;;;2.67;100.00;96168.94;5359789;26;20863;-68
2024/04/18 04:34:12;;;;;;;8.00;6.32;;;;;;;2.86;100.00;96170.41;5353672;26;20004;-69
2024/04/18 04:36:37;;;;;;;14.63;6.53;;;;;;;3.04;100.00;96160.25;5329106;26;20000;-69
2024/04/18 04:39:03;;;;;;;25.95;9.02;;;;;;;3.17;100.00;96167.31;5344691;26;20001;-67
2024/04/18 04:41:28;;;;;;;13.20;6.68;;;;;;;3.22;100.00;96179.81;5356178;26;20367;-68
2024/04/18 04:43:53;;;;;;;10.10;5.75;;;;;;;3.14;100.00;96172.59;5326160;26;20011;-69
2024/04/18 04:46:19;;;;;;;24.38;8.82;;;;;;;3.17;100.00;96177.31;5346775;26;20015;-69
2024/04/18 04:48:44;;;;;;;10.63;5.78;;;;;;;3.28;100.00;96181.22;5367797;26;20008;-68
2024/04/18 04:51:10;;;;;;;10.85;6.40;;;;;;;3.15;100.00;96176.88;5322806;26;20015;-68
2024/04/18 04:53:36;;;;;;;11.50;6.32;;;;;;;3.02;100.00;96178.72;5360396;26;20007;-68
2024/04/18 04:56:01;;;;;;;11.68;6.43;;;;;;;2.83;100.00;96181.91;5325241;26;20351;-68
2024/04/18 04:58:27;;;;;;;8.48;5.53;;;;;;;2.78;100.00;96184.78;5365576;26;20014;-68
2024/04/18 05:00:56;;;;;;;11.27;5.85;;;;;;;2.77;100.00;96191.31;5354465;26;20008;-68
2024/04/18 05:03:22;;;;;;;8.75;6.35;;;;;;;2.87;100.00;96186.31;5354605;26;20243;-68
2024/04/18 05:05:47;;;;;;;9.95;5.93;;;;;;;3.01;100.00;96187.97;5359598;26;19997;-68
2024/04/18 05:08:12;;;;;;;10.73;6.35;;;;;;;3.15;100.00;96193.91;5321856;26;20012;-68
2024/04/18 05:10:41;;;;;;;8.93;6.05;;;;;;;3.19;100.00;96202.16;5363440;26;20008;-68
2024/04/18 05:13:06;;;;;;;8.43;6.10;;;;;;;3.30;100.00;96192.50;5353684;26;20015;-68
2024/04/18 05:15:32;;;;;;;10.00;6.40;;;;;;;3.24;100.00;96199.22;5365033;26;20012;-68
2024/04/18 05:17:58;;;;;;;10.68;6.38;;;;;;;3.30;100.00;96199.84;5359035;26;20315;-68
2024/04/18 05:20:23;;;;;;;10.52;7.20;;;;;;;3.28;100.00;96207.47;5351495;26;20004;-68
2024/04/18 05:22:49;;;;;;;12.60;8.80;;;;;;;3.25;100.00;96207.03;5323397;26;20000;-69
2024/04/18 05:25:14;;;;;;;8.98;6.93;;;;;;;3.17;100.00;96207.09;5350144;26;20000;-68
2024/04/18 05:27:44;;;;;;;10.48;7.60;;;;;;;3.26;100.00;96207.84;5367698;26;20551;-68
2024/04/18 05:32:54;;;;;;;8.70;6.72;;;;;;;3.17;100.00;96209.78;5328436;26;20005;-68
2024/04/18 05:35:20;;;;;;;10.95;6.47;;;;;;;3.29;100.00;96214.50;5350672;26;20004;-68
2024/04/18 05:37:45;;;;;;;8.73;6.18;;;;;;;3.48;100.00;96216.72;5328481;26;20036;-67
2024/04/18 05:40:10;;;;;;;8.45;6.05;;;;;;;3.57;100.00;96214.72;5312633;26;20023;-67
2024/04/18 05:42:36;;;;;;;7.63;5.70;;;;;;;3.57;100.00;96222.84;5360468;26;20001;-67
2024/04/18 05:45:01;;;;;;;9.02;6.93;;;;;;;3.56;100.00;96223.97;5359139;26;20012;-67
2024/04/18 05:47:27;;;;;;;9.70;6.35;;;;;;;3.63;100.00;96235.84;5351854;26;20008;-68
2024/04/18 05:49:53;;;;;;;7.63;5.82;;;;;;;3.28;100.00;96234.53;5360216;26;20000;-66
2024/04/18 05:52:19;;;;;;;8.93;6.13;;;;;;;3.00;100.00;96241.28;5340548;26;20355;-68
2024/04/18 05:54:44;;;;;;;9.18;6.20;;;;;;;3.26;100.00;96240.31;5328437;26;20012;-69
2024/04/18 05:57:09;;;;;;;10.13;6.07;;;;;;;3.47;100.00;96242.22;5351023;26;20047;-69
2024/04/18 05:59:35;;;;;;;10.10;6.15;;;;;;;3.62;100.00;96236.19;5359158;26;20015;-69
2024/04/18 06:02:00;;;;;;;7.60;4.57;;;;;;;3.72;100.00;96241.19;5347010;26;20012;-69
2024/04/18 06:04:25;;;;;;;8.13;5.30;;;;;;;3.93;100.00;96245.78;5350572;26;20007;-69
2024/04/18 06:06:51;;;;;;;7.78;5.15;;;;;;;4.04;100.00;96249.63;5359115;26;20000;-69
2024/04/18 06:09:16;;;;;;;8.27;5.07;;;;;;;4.23;100.00;96240.97;5350495;26;20032;-69
2024/04/18 06:11:43;;;;;;;7.45;4.85;;;;;;;4.44;100.00;96245.53;5360303;26;20424;-68
2024/04/18 06:14:11;;;;;;;31.02;17.70;;;;;;;4.61;100.00;96250.75;5325261;26;20034;-69
2024/04/18 06:16:37;;;;;;;8.43;4.35;;;;;;;4.79;100.00;96254.81;5360397;26;20004;-69
2024/04/18 06:19:02;;;;;;;4.43;3.53;;;;;;;4.96;100.00;96253.78;5362825;26;20004;-68
2024/04/18 06:21:28;;;;;;;11.80;4.15;;;;;;;5.29;100.00;96260.16;5328371;26;20019;-69
2024/04/18 06:23:53;;;;;;;5.00;2.80;;;;;;;5.65;100.00;96256.56;5357323;26;20040;-68
2024/04/18 06:26:19;;;;;;;5.35;2.40;;;;;;;5.95;100.00;96258.94;5320754;26;20050;-69
2024/04/18 06:28:45;;;;;;;2.95;2.28;;;;;;;6.37;100.00;96265.88;5361089;26;20469;-69
2024/04/18 06:31:11;;;;;;;4.82;1.90;;;;;;;6.97;100.00;96265.75;5320812;26;20008;-69
2024/04/18 06:33:36;;;;;;;2.60;1.45;;;;;;;7.34;100.00;96273.59;5360136;26;20078;-70
2024/04/18 06:36:02;;;;;;;3.40;1.52;;;;;;;7.40;100.00;96266.72;5369602;26;20030;-68
2024/04/18 06:38:28;;;;;;;3.28;1.67;;;;;;;7.23;100.00;96273.38;5356473;26;20055;-69
2024/04/18 06:40:53;;;;;;;3.28;2.08;;;;;;;7.04;100.00;96276.81;5355228;26;20000;-69
2024/04/18 06:43:19;;;;;;;5.07;2.15;;;;;;;6.95;100.00;96282.47;5348669;26;20550;-69
2024/04/18 06:45:44;;;;;;;2.42;1.77;;;;;;;6.94;100.00;96274.66;5359395;26;20739;-69
2024/04/18 06:48:10;;;;;;;3.40;1.73;;;;;;;6.72;100.00;96289.66;5350445;26;20034;-68
2024/04/18 06:50:36;;;;;;;2.78;2.20;;;;;;;6.26;100.00;96274.53;5359123;26;20033;-68
2024/04/18 06:53:02;;;;;;;6.97;3.25;;;;;;;5.91;100.00;96282.53;5362378;26;20000;-68
2024/04/18 06:55:27;;;;;;;3.63;2.38;;;;;;;6.28;100.00;96288.59;5327561;26;20015;-69
2024/04/18 06:57:53;;;;;;;3.10;2.10;;;;;;;6.50;100.00;96287.22;5342469;26;20018;-69
2024/04/18 07:00:19;;;;;;;3.33;2.15;;;;;;;6.77;100.00;96292.94;5361655;26;20000;-69
2024/04/18 07:02:44;;;;;;;7.03;4.85;;;;;;;6.19;100.00;96287.94;5318110;26;20025;-68
2024/04/18 07:05:09;;;;;;;5.13;4.00;;;;;;;4.89;100.00;96291.53;5351202;26;20000;-68
2024/04/18 07:07:35;;;;;;;4.05;2.45;;;;;;;4.93;100.00;96288.94;5355560;26;20014;-68
2024/04/18 07:10:01;;;;;;;3.50;2.63;;;;;;;4.25;100.00;96292.13;5344911;26;19996;-67
2024/04/18 07:12:26;;;;;;;4.53;2.25;;;;;;;4.21;100.00;96292.03;5353840;26;20350;-68
2024/04/18 07:14:51;;;;;;;4.13;3.10;;;;;;;4.69;100.00;96303.31;5332167;26;20005;-68
2024/04/18 07:17:17;;;;;;;8.10;3.45;;;;;;;4.71;100.00;96293.69;5350805;26;20443;-66
2024/04/18 07:19:43;;;;;;;4.75;2.90;;;;;;;4.44;100.00;96300.53;5362670;26;20011;-69
2024/04/18 07:22:08;;;;;;;4.78;2.42;;;;;;;4.75;100.00;96299.22;5351110;26;20008;-69
2024/04/18 07:24:34;;;;;;;4.50;2.40;;;;;;;5.07;100.00;96310.31;5357121;26;19996;-70
2024/04/18 07:26:59;;;;;;;5.28;2.72;;;;;;;4.44;100.00;96307.91;5332194;26;20037;-69
2024/04/18 07:29:24;;;;;;;4.18;2.50;;;;;;;5.26;100.00;96310.53;5348233;26;20000;-69
2024/04/18 07:31:50;;;;;;;7.15;2.70;;;;;;;5.21;100.00;96313.47;5326317;26;20001;-70
2024/04/18 07:34:16;;;;;;;5.45;3.20;;;;;;;4.89;100.00;96317.91;5350457;26;20019;-71
2024/04/18 07:36:45;;;;;;;4.82;3.05;;;;;;;4.45;100.00;96318.41;5361320;26;20000;-71
2024/04/18 07:39:11;;;;;;;4.18;2.97;;;;;;;5.42;100.00;96320.69;5356236;26;20435;-70
2024/04/18 07:41:36;;;;;;;5.70;3.35;;;;;;;5.50;100.00;96331.41;5356232;26;20011;-69
2024/04/18 07:44:01;;;;;;;6.90;3.40;;;;;;;7.49;100.00;96334.66;5360068;26;20409;-69
2024/04/18 07:46:31;;;;;;;8.40;3.45;;;;;;;9.06;100.00;96331.47;5355535;26;20018;-68
2024/04/18 07:48:57;;;;;;;5.90;3.72;;;;;;;9.74;100.00;96337.16;5360440;26;20000;-69
2024/04/18 07:51:22;;;;;;;3.42;1.92;;;;;;;10.82;91.85;96341.97;5353961;26;20264;-69
2024/04/18 07:53:48;;;;;;;6.00;2.50;;;;;;;10.99;97.00;96339.78;5331952;26;20008;-69
2024/04/18 07:56:13;;;;;;;6.55;3.38;;;;;;;7.93;100.00;96335.22;5321956;26;20088;-68
2024/04/18 07:58:38;;;;;;;5.25;4.40;;;;;;;9.40;100.00;96341.75;5361045;26;20118;-68
2024/04/18 08:01:05;;;;;;;4.32;2.60;;;;;;;9.03;100.00;96343.13;5340726;26;20001;-69
2024/04/18 08:03:31;;;;;;;5.18;2.88;;;;;;;8.80;100.00;96343.13;5375862;26;20382;-69
2024/04/18 08:05:56;;;;;;;10.68;4.60;;;;;;;9.21;100.00;96345.38;5330500;26;20011;-69
2024/04/18 08:08:21;;;;;;;4.38;2.40;;;;;;;7.66;100.00;96347.88;5353930;26;20974;-68
2024/04/18 08:10:47;;;;;;;6.63;2.95;;;;;;;6.40;100.00;96353.00;5359205;26;20016;-68
2024/04/18 08:13:12;;;;;;;4.40;2.50;;;;;;;5.50;100.00;96358.59;5367812;26;20571;-66
2024/04/18 08:15:43;;;;;;;5.25;3.15;;;;;;;4.63;100.00;96350.75;5329565;26;19996;-66
2024/04/18 08:18:08;;;;;;;6.72;3.72;;;;;;;5.23;100.00;96359.28;5371278;26;20012;-68
2024/04/18 08:20:34;;;;;;;6.38;3.25;;;;;;;5.69;100.00;96368.06;5360893;26;20000;-67
2024/04/18 08:22:59;;;;;;;4.15;2.63;;;;;;;5.81;100.00;96361.81;5363189;26;20015;-67
2024/04/18 08:25:24;;;;;;;5.97;3.10;;;;;;;5.04;100.00;96366.09;5322491;26;20474;-68
2024/04/18 08:27:50;;;;;;;5.25;3.22;;;;;;;4.34;100.00;96375.00;5362058;26;20000;-67
2024/04/18 08:30:16;;;;;;;4.32;2.80;;;;;;;3.81;100.00;96381.97;5355579;26;20370;-67
2024/04/18 08:32:41;;;;;;;6.05;3.63;;;;;;;4.33;100.00;96378.03;5361036;26;20000;-67
2024/04/18 08:35:07;;;;;;;6.38;3.42;;;;;;;4.75;100.00;96384.16;5354441;26;20459;-66
2024/04/18 08:37:32;;;;;;;14.13;5.00;;;;;;;4.82;100.00;96389.00;5361091;26;20024;-66
2024/04/18 08:39:58;;;;;;;5.18;2.95;;;;;;;4.78;100.00;96390.81;5358389;26;20009;-69
2024/04/18 08:42:24;;;;;;;6.40;3.30;;;;;;;4.81;100.00;96395.56;5353129;26;20429;-69
2024/04/18 08:44:55;;;;;;;8.02;4.22;;;;;;;4.59;100.00;96392.13;5360135;26;20460;-67
2024/04/18 08:47:25;;;;;;;5.07;3.40;;;;;;;4.61;100.00;96391.78;5351458;26;20366;-67
2024/04/18 08:49:52;;;;;;;5.90;3.28;;;;;;;4.67;100.00;96395.09;5359854;26;20008;-67
2024/04/18 08:52:18;;;;;;;4.90;3.17;;;;;;;4.52;100.00;96399.22;5353644;26;20004;-66
2024/04/18 08:54:43;;;;;;;3.78;3.08;;;;;;;4.54;100.00;96392.34;5360322;26;20330;-69
2024/04/18 08:57:11;;;;;;;5.05;3.53;;;;;;;4.46;100.00;96404.06;5352995;26;20000;-68
2024/04/18 08:59:37;;;;;;;4.75;3.40;;;;;;;4.41;100.00;96415.09;5360442;26;20036;-67
2024/04/18 09:02:02;;;;;;;4.72;3.30;;;;;;;4.40;100.00;96414.31;5311851;26;20512;-67
2024/04/18 09:04:31;;;;;;;8.57;3.92;;;;;;;4.35;100.00;96417.22;5328841;26;19996;-68
2024/04/18 09:06:57;;;;;;;13.63;5.45;;;;;;;4.43;100.00;96422.91;5324142;26;20381;-68
2024/04/18 09:09:22;;;;;;;14.30;4.32;;;;;;;4.27;100.00;96428.97;5323753;26;20000;-67
2024/04/18 09:11:48;;;;;;;6.40;3.22;;;;;;;4.21;100.00;96428.38;5357867;26;20000;-68
2024/04/18 09:14:13;;;;;;;9.77;4.35;;;;;;;4.14;100.00;96422.69;5351552;26;19996;-68
2024/04/18 09:16:39;;;;;;;5.88;3.72;;;;;;;4.20;100.00;96423.28;5360491;26;20008;-68
2024/04/18 09:19:04;;;;;;;6.18;3.42;;;;;;;4.21;100.00;96419.44;5353615;26;20730;-67
2024/04/18 09:21:33;;;;;;;7.65;3.88;;;;;;;4.30;100.00;96430.97;5366025;26;20000;-69
2024/04/18 09:23:58;;;;;;;7.88;4.00;;;;;;;4.46;100.00;96433.09;5365080;26;20040;-69
2024/04/18 09:26:28;;;;;;;6.07;3.63;;;;;;;4.47;100.00;96440.13;5336820;26;19996;-69
2024/04/18 09:28:55;;;;;;;6.65;3.72;;;;;;;4.48;100.00;96441.69;5323267;26;20005;-69
2024/04/18 09:31:21;;;;;;;5.53;3.40;;;;;;;4.52;100.00;96440.69;5351796;26;20000;-69
2024/04/18 09:33:49;;;;;;;4.95;3.70;;;;;;;4.56;100.00;96449.75;5359912;26;20015;-69
2024/04/18 09:36:16;;;;;;;11.38;5.88;;;;;;;4.51;100.00;96451.88;5351482;26;20747;-69
2024/04/18 09:38:45;;;;;;;7.38;4.50;;;;;;;4.49;100.00;96446.78;5361125;26;20011;-68
2024/04/18 09:41:14;;;;;;;14.07;5.50;;;;;;;4.55;100.00;96456.28;5348782;26;20028;-68
2024/04/18 09:43:58;;;;;;;7.57;3.47;;;;;;;4.47;100.00;96454.47;5343483;26;20046;-68
2024/04/18 09:46:25;;;;;;;14.00;6.22;;;;;;;4.38;100.00;96457.25;5352116;26;20000;-69
2024/04/18 09:48:52;;;;;;;5.60;3.80;;;;;;;4.38;100.00;96465.38;5358265;26;20421;-69
2024/04/18 09:51:19;;;;;;;5.15;3.33;;;;;;;4.48;100.00;96463.38;5318832;26;20019;-68
2024/04/18 09:53:46;;;;;;;5.18;3.90;;;;;;;4.32;100.00;96466.72;5372474;26;20484;-69
2024/04/18 09:56:12;;;;;;;6.35;3.90;;;;;;;3.72;100.00;96470.63;5354119;26;20000;-69
2024/04/18 09:58:38;;;;;;;6.10;3.97;;;;;;;3.34;100.00;96474.94;5357759;26;20748;-68
2024/04/18 10:01:04;;;;;;;6.13;4.05;;;;;;;3.27;100.00;96474.66;5319739;26;20000;-68
2024/04/18 10:03:29;;;;;;;6.70;4.45;;;;;;;3.43;100.00;96478.41;5332242;26;20000;-68
2024/04/18 10:06:00;;;;;;;9.02;5.50;;;;;;;3.83;100.00;96478.06;5360567;26;20016;-68
2024/04/18 10:08:36;;;;;;;9.48;4.85;;;;;;;4.04;100.00;96476.50;5334922;26;20063;-67
2024/04/18 10:11:03;;;;;;;21.35;7.10;;;;;;;4.15;100.00;96478.47;5314661;26;20024;-69
2024/04/18 10:13:28;;;;;;;14.35;6.45;;;;;;;4.11;100.00;96472.13;5355820;26;20012;-67
2024/04/18 10:16:08;;;;;;;10.73;5.25;;;;;;;4.16;100.00;96480.06;5358590;26;19996;-68
2024/04/18 10:18:38;;;;;;;28.25;8.20;;;;;;;4.22;100.00;96480.66;5354352;26;20007;-67
2024/04/18 10:21:13;;;;;;;7.82;4.55;;;;;;;4.40;100.00;96475.91;5326290;26;20036;-68
2024/04/18 10:23:49;;;;;;;16.73;6.90;;;;;;;4.45;100.00;96480.31;5388224;26;20036;-69
2024/04/18 10:26:15;;;;;;;6.05;3.97;;;;;;;4.47;100.00;96478.09;5363517;26;20016;-68
2024/04/18 10:28:42;;;;;;;5.82;3.95;;;;;;;4.68;100.00;96481.56;5373649;26;19996;-68
2024/04/18 10:31:08;;;;;;;5.60;3.50;;;;;;;5.06;100.00;96477.03;5366065;26;20073;-68
2024/04/18 10:33:39;;;;;;;4.60;3.70;;;;;;;5.32;100.00;96480.25;5354016;26;20024;-68
2024/04/18 10:36:24;;;;;;;4.60;3.92;;;;;;;5.69;100.00;96482.19;5356680;26;20000;-66
2024/04/18 10:38:49;;;;;;;5.78;3.50;;;;;;;6.08;100.00;96486.13;5338855;26;20019;-69
2024/04/18 10:41:17;;;;;;;4.55;2.90;;;;;;;6.66;100.00;96490.53;5359451;26;20023;-68
2024/04/18 10:43:44;;;;;;;3.72;2.83;;;;;;;7.36;100.00;96489.28;5383973;26;19999;-68
2024/04/18 10:46:10;;;;;;;3.78;2.55;;;;;;;7.55;100.00;96488.59;5370627;26;20066;-68
2024/04/18 10:48:36;;;;;;;3.92;2.55;;;;;;;7.82;100.00;96486.91;5380704;26;20052;-69
2024/04/18 10:51:03;;;;;;;4.00;2.42;;;;;;;7.65;100.00;96494.31;5388204;26;20000;-68
2024/04/18 10:53:29;;;;;;;12.98;7.88;;;;;;;8.68;100.00;96493.47;5395679;26;19995;-68
2024/04/18 10:55:54;;;;;;;3.10;2.40;;;;;;;9.23;100.00;96493.34;5379867;26;20092;-68
2024/04/18 10:58:20;;;;;;;7.40;2.65;;;;;;;10.65;100.00;96504.19;5386673;26;21609;-68
2024/04/18 11:00:46;;;;;;;10.15;3.25;;;;;;;11.17;100.00;96504.41;5383494;26;20457;-67
2024/04/18 11:03:12;;;;;;;4.68;3.65;;;;;;;11.16;100.00;96502.81;5352032;26;20004;-68
2024/04/18 11:05:38;;;;;;;6.30;2.40;;;;;;;11.18;100.00;96503.22;5393959;26;19999;-67
2024/04/18 11:08:04;;;;;;;3.20;2.30;;;;;;;11.06;100.00;96499.56;5387390;26;20598;-69
2024/04/18 11:10:31;;;;;;;3.42;2.20;;;;;;;10.62;100.00;96497.47;5396702;26;20007;-68
2024/04/18 11:12:57;;;;;;;2.95;2.15;;;;;;;10.94;100.00;96491.59;5365212;26;20000;-68
2024/04/18 11:15:23;;;;;;;4.40;2.50;;;;;;;11.08;100.00;96486.28;5375998;26;20547;-68
2024/04/18 11:17:48;;;;;;;27.48;14.77;;;;;;;11.05;97.67;96492.50;5397192;26;20000;-67
2024/04/18 11:20:14;;;;;;;94.18;52.80;;;;;;;10.86;100.00;96482.53;5364302;26;20316;-67
2024/04/18 11:22:42;;;;;;;114.07;60.20;;;;;;;10.56;100.00;96493.50;5389119;26;20000;-67
2024/04/18 11:25:07;;;;;;;76.50;39.63;;;;;;;9.98;100.00;96488.34;5384089;26;20014;-67
2024/04/18 11:27:38;;;;;;;10.27;6.13;;;;;;;9.61;100.00;96491.66;5368257;26;20007;-67
2024/04/18 11:30:06;;;;;;;7.57;3.85;;;;;;;9.25;100.00;96496.50;5391210;26;20023;-68